sensor_id;sensor_type;location;lat;lon;timestamp;pressure;altitude;pressure_sealevel;temperature;humidity
12073;BME280;6098;49.004;8.372;2024-03-22T00:09:56;101084.96;;;13.32;67.32
12073;BME280;6098;49.004;8.372;2024-03-22T00:24:47;101067.94;;;13.14;68.57
12073;BME280;6098;49.004;8.372;2024-03-22T00:39:38;101058.72;;;12.87;70.62
12073;BME280;6098;49.004;8.372;2024-03-22T00:54:28;101040.56;;;12.63;70.85
12073;BME280;6098;49.004;8.372;2024-03-22T01:09:20;101025.88;;;12.64;70.49
12073;BME280;6098;49.004;8.372;2024-03-22T01:24:11;101021.56;;;12.62;72.09
12073;BME280;6098;49.004;8.372;2024-03-22T01:39:02;101002.23;;;12.45;72.73
12073;BME280;6098;49.004;8.372;2024-03-22T01:53:54;100997.62;;;12.26;73.43
12073;BME280;6098;49.004;8.372;2024-03-22T02:08:45;100978.36;;;12.08;75.65
12073;BME280;6098;49.004;8.372;2024-03-22T02:23:38;100978.09;;;11.90;76.53
12073;BME280;6098;49.004;8.372;2024-03-22T02:38:29;100965.33;;;11.75;77.76
12073;BME280;6098;49.004;8.372;2024-03-22T02:53:21;100962.94;;;11.67;78.46
12073;BME280;6098;49.004;8.372;2024-03-22T03:08:12;100959.81;;;11.54;78.34
12073;BME280;6098;49.004;8.372;2024-03-22T03:23:03;100956.95;;;11.47;77.70
12073;BME280;6098;49.004;8.372;2024-03-22T03:37:56;100948.87;;;11.50;78.24
12073;BME280;6098;49.004;8.372;2024-03-22T03:52:49;100925.99;;;11.46;78.49
12073;BME280;6098;49.004;8.372;2024-03-22T04:07:41;100924.48;;;11.39;78.32
12073;BME280;6098;49.004;8.372;2024-03-22T04:22:33;100923.34;;;11.33;78.01
12073;BME280;6098;49.004;8.372;2024-03-22T04:37:27;100924.28;;;11.32;78.44
12073;BME280;6098;49.004;8.372;2024-03-22T04:52:20;100914.56;;;11.31;78.97
12073;BME280;6098;49.004;8.372;2024-03-22T05:07:12;100914.34;;;11.38;78.77
12073;BME280;6098;49.004;8.372;2024-03-22T05:22:03;100901.16;;;11.35;79.31
12073;BME280;6098;49.004;8.372;2024-03-22T05:36:55;100883.69;;;11.42;79.33
12073;BME280;6098;49.004;8.372;2024-03-22T05:51:46;100872.50;;;11.45;79.11
12073;BME280;6098;49.004;8.372;2024-03-22T06:06:39;100869.78;;;11.59;78.77
12073;BME280;6098;49.004;8.372;2024-03-22T06:21:32;100874.45;;;11.78;78.73
12073;BME280;6098;49.004;8.372;2024-03-22T06:36:24;100867.20;;;11.95;78.41
12073;BME280;6098;49.004;8.372;2024-03-22T06:51:15;100842.31;;;11.97;78.83
12073;BME280;6098;49.004;8.372;2024-03-22T07:06:07;100831.70;;;12.20;78.51
12073;BME280;6098;49.004;8.372;2024-03-22T07:20:58;100830.44;;;12.53;76.15
12073;BME280;6098;49.004;8.372;2024-03-22T07:35:52;100821.82;;;12.89;74.54
12073;BME280;6098;49.004;8.372;2024-03-22T07:50:44;100812.28;;;13.37;72.48
12073;BME280;6098;49.004;8.372;2024-03-22T08:05:37;100785.34;;;14.02;69.93
12073;BME280;6098;49.004;8.372;2024-03-22T08:20:30;100793.66;;;14.70;67.62
12073;BME280;6098;49.004;8.372;2024-03-22T08:35:25;100780.03;;;15.36;65.55
12073;BME280;6098;49.004;8.372;2024-03-22T08:50:18;100767.27;;;15.67;64.06
12073;BME280;6098;49.004;8.372;2024-03-22T09:05:11;100759.98;;;16.10;62.88
12073;BME280;6098;49.004;8.372;2024-03-22T09:20:05;100742.92;;;16.52;61.77
12073;BME280;6098;49.004;8.372;2024-03-22T09:34:58;100729.42;;;16.77;60.91
12073;BME280;6098;49.004;8.372;2024-03-22T09:49:49;100712.45;;;16.92;58.83
12073;BME280;6098;49.004;8.372;2024-03-22T10:20:00;100685.00;;;17.39;57.21
12073;BME280;6098;49.004;8.372;2024-03-22T10:34:53;100668.70;;;17.50;56.24
12073;BME280;6098;49.004;8.372;2024-03-22T10:49:45;100638.05;;;17.68;55.47
12073;BME280;6098;49.004;8.372;2024-03-22T11:04:38;100610.06;;;17.86;54.21
12073;BME280;6098;49.004;8.372;2024-03-22T11:19:29;100587.53;;;17.88;53.78
12073;BME280;6098;49.004;8.372;2024-03-22T11:34:21;100557.04;;;18.23;53.32
12073;BME280;6098;49.004;8.372;2024-03-22T11:49:15;100520.75;;;18.37;51.50
12073;BME280;6098;49.004;8.372;2024-03-22T12:04:10;100508.72;;;18.69;50.91
12073;BME280;6098;49.004;8.372;2024-03-22T12:19:02;100486.52;;;18.85;50.33
12073;BME280;6098;49.004;8.372;2024-03-22T12:33:54;100467.58;;;19.36;46.49
12073;BME280;6098;49.004;8.372;2024-03-22T12:48:46;100441.50;;;19.49;45.04
12073;BME280;6098;49.004;8.372;2024-03-22T13:03:38;100431.07;;;19.62;42.65
12073;BME280;6098;49.004;8.372;2024-03-22T13:18:30;100406.39;;;19.63;43.14
12073;BME280;6098;49.004;8.372;2024-03-22T13:33:23;100386.14;;;19.34;43.39
12073;BME280;6098;49.004;8.372;2024-03-22T13:48:14;100357.01;;;19.05;45.89
12073;BME280;6098;49.004;8.372;2024-03-22T14:03:07;100336.47;;;19.04;46.57
12073;BME280;6098;49.004;8.372;2024-03-22T14:17:59;100295.23;;;19.10;46.41
12073;BME280;6098;49.004;8.372;2024-03-22T14:32:52;100264.25;;;19.11;47.24
12073;BME280;6098;49.004;8.372;2024-03-22T14:47:46;100239.90;;;19.25;47.17
12073;BME280;6098;49.004;8.372;2024-03-22T15:02:38;100207.92;;;19.16;47.67
12073;BME280;6098;49.004;8.372;2024-03-22T15:17:32;100186.86;;;19.44;47.01
12073;BME280;6098;49.004;8.372;2024-03-22T15:32:25;100165.87;;;19.49;46.49
12073;BME280;6098;49.004;8.372;2024-03-22T15:47:17;100147.84;;;19.40;46.87
12073;BME280;6098;49.004;8.372;2024-03-22T16:02:09;100117.11;;;19.31;47.85
12073;BME280;6098;49.004;8.372;2024-03-22T16:17:00;100116.36;;;19.24;48.04
12073;BME280;6098;49.004;8.372;2024-03-22T16:31:53;100102.92;;;19.13;48.22
12073;BME280;6098;49.004;8.372;2024-03-22T16:46:43;100084.86;;;18.92;48.60
12073;BME280;6098;49.004;8.372;2024-03-22T17:01:36;100060.20;;;18.92;49.07
12073;BME280;6098;49.004;8.372;2024-03-22T17:16:44;100052.48;;;18.77;49.31
12073;BME280;6098;49.004;8.372;2024-03-22T17:31:35;100033.19;;;18.49;50.43
12073;BME280;6098;49.004;8.372;2024-03-22T17:46:26;100019.08;;;18.17;52.30
12073;BME280;6098;49.004;8.372;2024-03-22T18:01:17;100014.76;;;17.80;54.70
12073;BME280;6098;49.004;8.372;2024-03-22T18:16:09;100005.54;;;17.41;56.23
12073;BME280;6098;49.004;8.372;2024-03-22T18:31:00;99993.49;;;17.10;58.15
12073;BME280;6098;49.004;8.372;2024-03-22T18:45:51;99990.34;;;16.80;59.13
12073;BME280;6098;49.004;8.372;2024-03-22T19:00:42;99992.91;;;16.50;60.02
12073;BME280;6098;49.004;8.372;2024-03-22T19:15:33;99983.95;;;16.37;59.42
12073;BME280;6098;49.004;8.372;2024-03-22T19:30:25;99978.46;;;16.33;59.83
12073;BME280;6098;49.004;8.372;2024-03-22T19:45:18;99970.28;;;16.03;61.17
12073;BME280;6098;49.004;8.372;2024-03-22T20:00:09;99964.09;;;15.69;63.25
12073;BME280;6098;49.004;8.372;2024-03-22T20:15:01;99940.08;;;15.49;63.59
12073;BME280;6098;49.004;8.372;2024-03-22T20:29:53;99939.26;;;15.20;64.65
